SPCL/PCL METAR and TAF weather

Enter ICAO airport designator
Station Type Date Time Source
SPCL METAR 2021/03/06 19:00 UTC NOAA

SPCL 061900Z 34004KT 9999 SCT020 BKN080 30/22 Q1010 RMK BIRD HAZARD RWY 02/20 PP000


Station Type Date Time Source
SPCL Decoded METAR 2021/03/06 19:00 UTC NOAA

Pucallpa, Peru (SPCL) 08-25S 074-36W 149M
Mar 06, 2021 - 02:00 PM EST / 2021.03.06 1900 UTC
Wind: from the NNW (340 degrees) at 5 MPH (4 KT):0
Visibility: greater than 7 mile(s):0
Sky conditions: mostly cloudy
Temperature: 86 F (30 C)
Heat index: 91.8 F (33.2 C):1
Dew Point: 71 F (22 C)
Relative Humidity: 62%
Pressure (altimeter): 29.83 in. Hg (1010 hPa)
ob: SPCL 061900Z 34004KT 9999 SCT020 BKN080 30/22 Q1010 RMK BIRD HAZARD RWY 02/20 PP000
cycle: 19

Station Type Date Time Source
SPCL TAF 2021/03/06 18:33 UTC NOAA

TAF SPCL 061700Z 0618/0718 04005KT 9999 BKN025 BKN070 TX33/0620Z TN22/0711Z
TEMPO 0619/0623 15015KT 4000 RADZ BKN015 FEW025CB BKN070
TEMPO 0711/0715 8000 BKN010 BKN080

Example: see airport list